Time;durP1;ratioP1;P1;durP2;ratioP2;P2;SDS_P1;SDS_P2;PMS_P1;PMS_P2;Temp;Humidity;BMP_temperature;BMP_pressure;BME280_temperature;BME280_humidity;BME280_pressure;Samples;Min_cycle;Max_cycle;Signal;HPM_P1;HPM_P2
2023/04/10 00:01:45;;;;;;;6.60;5.50;;;;;;;;;;107835;272;41878;-30
2023/04/10 00:04:22;;;;;;;6.70;5.20;;;;;;;;;;107878;272;38841;-30
2023/04/10 00:06:58;;;;;;;7.10;5.40;;;;;;;;;;107786;279;39854;-30
2023/04/10 00:09:31;;;;;;;7.10;5.60;;;;;;;;;;107790;272;42883;-30
2023/04/10 00:12:10;;;;;;;7.10;5.80;;;;;;;;;;107837;272;42138;-30
2023/04/10 00:14:46;;;;;;;6.90;5.60;;;;;;;;;;107707;272;177486;-30
2023/04/10 00:17:20;;;;;;;7.30;5.80;;;;;;;;;;107811;275;39835;-30
2023/04/10 00:19:58;;;;;;;7.00;5.70;;;;;;;;;;107846;279;44046;-30
2023/04/10 00:22:33;;;;;;;7.10;5.70;;;;;;;;;;107856;272;42141;-30
2023/04/10 00:25:08;;;;;;;7.00;5.70;;;;;;;;;;107713;272;175743;-30
2023/04/10 00:27:45;;;;;;;7.30;5.80;;;;;;;;;;107817;279;39855;-30
2023/04/10 00:30:21;;;;;;;6.80;5.80;;;;;;;;;;107822;279;42900;-30
2023/04/10 00:32:57;;;;;;;6.70;5.60;;;;;;;;;;107870;272;42159;-30
2023/04/10 00:35:33;;;;;;;7.00;5.80;;;;;;;;;;107827;279;38783;-30
2023/04/10 00:38:11;;;;;;;6.80;5.70;;;;;;;;;;107827;279;39725;-30
2023/04/10 00:40:47;;;;;;;7.10;6.00;;;;;;;;;;107821;272;42858;-30
2023/04/10 00:43:22;;;;;;;6.90;5.90;;;;;;;;;;107813;271;42395;-30
2023/04/10 00:45:58;;;;;;;7.40;5.90;;;;;;;;;;107867;272;38555;-30
2023/04/10 00:48:35;;;;;;;7.20;6.00;;;;;;;;;;107818;272;40381;-30
2023/04/10 00:51:12;;;;;;;7.00;5.70;;;;;;;;;;107745;272;175749;-30
2023/04/10 00:53:49;;;;;;;7.20;6.00;;;;;;;;;;107831;272;43293;-30
2023/04/10 00:56:29;;;;;;;6.60;5.80;;;;;;;;;;107816;271;37909;-30
2023/04/10 00:59:04;;;;;;;7.70;6.00;;;;;;;;;;107822;272;46102;-30
2023/04/10 01:01:41;;;;;;;6.90;5.80;;;;;;;;;;107745;272;175736;-30
2023/04/10 01:04:21;;;;;;;7.60;5.80;;;;;;;;;;107852;279;42100;-30
2023/04/10 01:07:09;;;;;;;7.70;6.20;;;;;;;;;;107801;272;39061;-30
2023/04/10 01:09:54;;;;;;;7.30;6.30;;;;;;;;;;107855;272;39738;-30
2023/04/10 01:12:52;;;;;;;7.70;6.20;;;;;;;;;;107826;279;42997;-30
2023/04/10 01:15:30;;;;;;;7.20;5.90;;;;;;;;;;107855;272;42197;-30
2023/04/10 01:18:16;;;;;;;7.40;5.90;;;;;;;;;;107823;272;38907;-30
2023/04/10 01:20:50;;;;;;;7.70;6.20;;;;;;;;;;107865;271;40042;-30
2023/04/10 01:23:57;;;;;;;8.20;6.60;;;;;;;;;;107823;271;44128;-30
2023/04/10 01:26:57;;;;;;;7.50;6.20;;;;;;;;;;107841;272;42147;-30
2023/04/10 01:29:34;;;;;;;8.10;6.30;;;;;;;;;;107782;271;44749;-30
2023/04/10 01:32:17;;;;;;;8.10;6.80;;;;;;;;;;107860;279;39717;-30
2023/04/10 01:34:56;;;;;;;8.50;6.60;;;;;;;;;;107870;271;42942;-30
2023/04/10 01:37:33;;;;;;;7.80;6.80;;;;;;;;;;107793;279;42995;-30
2023/04/10 01:40:11;;;;;;;8.70;6.80;;;;;;;;;;107380;273;608983;-30
2023/04/10 01:42:51;;;;;;;7.70;6.80;;;;;;;;;;107885;271;39679;-30
2023/04/10 01:45:32;;;;;;;8.40;6.80;;;;;;;;;;107834;272;43243;-30
2023/04/10 01:48:09;;;;;;;8.10;6.80;;;;;;;;;;107799;277;42281;-30
2023/04/10 01:50:45;;;;;;;7.80;6.70;;;;;;;;;;107842;271;38760;-30
2023/04/10 01:53:21;;;;;;;7.80;6.70;;;;;;;;;;107870;271;39794;-30
2023/04/10 01:55:57;;;;;;;8.80;6.80;;;;;;;;;;107873;271;43319;-30
2023/04/10 01:58:32;;;;;;;7.90;6.70;;;;;;;;;;107765;272;41942;-30
2023/04/10 02:01:08;;;;;;;8.40;6.70;;;;;;;;;;107827;275;38523;-30
2023/04/10 02:04:00;;;;;;;7.90;7.00;;;;;;;;;;107717;279;175390;-30
2023/04/10 02:06:44;;;;;;;8.30;6.90;;;;;;;;;;107843;271;44047;-30
2023/04/10 02:09:26;;;;;;;8.30;6.90;;;;;;;;;;107827;271;42156;-30
2023/04/10 02:12:06;;;;;;;8.20;6.70;;;;;;;;;;107863;271;39918;-30
2023/04/10 02:14:45;;;;;;;8.50;6.90;;;;;;;;;;107820;271;39728;-30
2023/04/10 02:17:28;;;;;;;8.30;6.80;;;;;;;;;;107827;271;44187;-30
2023/04/10 02:20:07;;;;;;;8.30;7.10;;;;;;;;;;107676;279;175759;-30
2023/04/10 02:22:45;;;;;;;8.60;6.70;;;;;;;;;;107839;272;38895;-30
2023/04/10 02:25:24;;;;;;;8.30;7.00;;;;;;;;;;107854;271;39780;-30
2023/04/10 02:27:59;;;;;;;8.10;7.10;;;;;;;;;;107727;279;175794;-30
2023/04/10 02:30:35;;;;;;;8.10;6.80;;;;;;;;;;107828;272;42219;-30
2023/04/10 02:33:09;;;;;;;8.10;7.00;;;;;;;;;;107842;272;38904;-30
2023/04/10 02:35:43;;;;;;;8.10;6.80;;;;;;;;;;107858;272;39738;-30
2023/04/10 02:38:21;;;;;;;8.20;6.90;;;;;;;;;;107816;279;42996;-30
2023/04/10 02:40:57;;;;;;;7.60;6.80;;;;;;;;;;107836;272;47908;-30
2023/04/10 02:43:32;;;;;;;8.30;7.30;;;;;;;;;;107834;279;38747;-30
2023/04/10 02:46:09;;;;;;;8.30;7.30;;;;;;;;;;107832;272;39800;-30
2023/04/10 02:48:43;;;;;;;8.90;7.00;;;;;;;;;;107852;275;43377;-30
2023/04/10 02:51:18;;;;;;;8.60;6.90;;;;;;;;;;107801;272;42567;-30
2023/04/10 02:53:52;;;;;;;8.00;6.80;;;;;;;;;;107847;272;39876;-31
2023/04/10 02:56:27;;;;;;;8.50;7.00;;;;;;;;;;107842;272;40839;-30
2023/04/10 02:59:02;;;;;;;7.90;6.40;;;;;;;;;;107816;272;44008;-30
2023/04/10 03:01:38;;;;;;;8.30;6.90;;;;;;;;;;107860;279;48335;-30
2023/04/10 03:04:14;;;;;;;8.50;7.10;;;;;;;;;;107836;272;40339;-30
2023/04/10 03:06:49;;;;;;;8.40;7.10;;;;;;;;;;107817;272;40928;-30
2023/04/10 03:09:25;;;;;;;8.50;6.90;;;;;;;;;;107785;279;45187;-30
2023/04/10 03:12:00;;;;;;;8.60;6.90;;;;;;;;;;107847;279;41890;-30
2023/04/10 03:14:36;;;;;;;8.30;6.90;;;;;;;;;;107859;279;38540;-30
2023/04/10 03:17:11;;;;;;;8.60;7.00;;;;;;;;;;107844;279;39666;-30
2023/04/10 03:19:44;;;;;;;8.10;6.70;;;;;;;;;;107799;279;42977;-30
2023/04/10 03:22:23;;;;;;;8.40;7.10;;;;;;;;;;107844;279;43280;-30
2023/04/10 03:24:58;;;;;;;8.90;7.20;;;;;;;;;;107842;279;38762;-30
2023/04/10 03:27:33;;;;;;;8.90;6.80;;;;;;;;;;107794;279;39724;-30
2023/04/10 03:30:10;;;;;;;9.10;7.30;;;;;;;;;;107805;279;44413;-30
2023/04/10 03:32:46;;;;;;;9.20;7.40;;;;;;;;;;107824;272;42495;-30
2023/04/10 03:35:21;;;;;;;8.40;6.80;;;;;;;;;;107842;279;39058;-30
2023/04/10 03:37:57;;;;;;;8.50;7.30;;;;;;;;;;107833;272;39952;-30
2023/04/10 03:40:34;;;;;;;9.50;7.50;;;;;;;;;;107842;272;43485;-30
2023/04/10 03:43:10;;;;;;;8.80;7.00;;;;;;;;;;107821;279;43298;-30
2023/04/10 03:45:47;;;;;;;9.30;7.50;;;;;;;;;;107829;279;38793;-30
2023/04/10 03:48:26;;;;;;;10.60;7.40;;;;;;;;;;107839;272;39680;-30
2023/04/10 03:51:02;;;;;;;9.20;7.50;;;;;;;;;;107810;279;44086;-30
2023/04/10 03:53:39;;;;;;;10.50;7.50;;;;;;;;;;107820;272;42245;-30
2023/04/10 03:56:16;;;;;;;8.40;7.00;;;;;;;;;;107825;272;39097;-30
2023/04/10 03:58:51;;;;;;;9.70;7.60;;;;;;;;;;107849;272;39439;-30
2023/04/10 04:01:27;;;;;;;8.80;7.30;;;;;;;;;;107800;279;43036;-30
2023/04/10 04:04:01;;;;;;;9.60;7.60;;;;;;;;;;107885;279;41859;-30
2023/04/10 04:06:35;;;;;;;9.40;7.20;;;;;;;;;;107832;272;38894;-30
2023/04/10 04:09:11;;;;;;;9.20;7.20;;;;;;;;;;107823;279;39704;-30
2023/04/10 04:11:48;;;;;;;9.90;8.00;;;;;;;;;;107808;279;43029;-30
2023/04/10 04:14:24;;;;;;;9.40;7.70;;;;;;;;;;107820;279;42331;-30
2023/04/10 04:17:00;;;;;;;9.60;7.50;;;;;;;;;;107852;272;38840;-30
2023/04/10 04:19:35;;;;;;;9.60;7.70;;;;;;;;;;107856;272;39723;-30
2023/04/10 04:22:11;;;;;;;9.30;7.50;;;;;;;;;;107832;279;44014;-30
2023/04/10 04:24:47;;;;;;;9.70;7.60;;;;;;;;;;107836;272;42256;-30
2023/04/10 04:27:23;;;;;;;9.10;7.40;;;;;;;;;;107844;279;39065;-30
2023/04/10 04:29:58;;;;;;;9.10;7.80;;;;;;;;;;107866;279;39680;-30
2023/04/10 04:32:36;;;;;;;9.20;7.60;;;;;;;;;;107807;279;42962;-30
2023/04/10 04:35:11;;;;;;;9.50;7.70;;;;;;;;;;107839;272;42137;-30
2023/04/10 04:37:45;;;;;;;9.80;7.80;;;;;;;;;;107861;272;38900;-30
2023/04/10 04:40:19;;;;;;;9.60;7.50;;;;;;;;;;107918;272;39805;-30
2023/04/10 04:42:53;;;;;;;9.20;7.70;;;;;;;;;;107839;272;42887;-30
2023/04/10 04:45:28;;;;;;;9.30;7.70;;;;;;;;;;107840;275;42251;-30
2023/04/10 04:48:02;;;;;;;9.10;7.70;;;;;;;;;;107888;279;38779;-30
2023/04/10 04:50:36;;;;;;;9.40;7.70;;;;;;;;;;107875;272;39694;-30
2023/04/10 04:53:13;;;;;;;8.70;7.40;;;;;;;;;;107777;279;42872;-30
2023/04/10 04:55:52;;;;;;;9.30;7.70;;;;;;;;;;107846;279;41853;-29
2023/04/10 04:58:31;;;;;;;8.80;7.60;;;;;;;;;;107856;271;38739;-29
2023/04/10 05:01:09;;;;;;;9.20;7.90;;;;;;;;;;107838;272;39732;-29
2023/04/10 05:03:45;;;;;;;9.60;7.40;;;;;;;;;;107823;272;44288;-29
2023/04/10 05:06:21;;;;;;;9.00;7.20;;;;;;;;;;107812;279;42150;-29
2023/04/10 05:08:58;;;;;;;8.90;7.90;;;;;;;;;;107858;272;38819;-29
2023/04/10 05:11:34;;;;;;;9.70;7.80;;;;;;;;;;107828;272;40805;-29
2023/04/10 05:14:11;;;;;;;8.70;7.70;;;;;;;;;;107807;271;48823;-29
2023/04/10 05:16:53;;;;;;;8.60;7.50;;;;;;;;;;107772;271;175747;-29
2023/04/10 05:19:30;;;;;;;8.70;7.70;;;;;;;;;;107861;279;38813;-29
2023/04/10 05:22:07;;;;;;;9.20;7.60;;;;;;;;;;107827;271;40102;-29
2023/04/10 05:24:43;;;;;;;8.80;7.40;;;;;;;;;;107845;279;49286;-29
2023/04/10 05:27:17;;;;;;;9.30;7.40;;;;;;;;;;107837;279;43380;-29
2023/04/10 05:29:54;;;;;;;8.60;7.30;;;;;;;;;;107849;272;38643;-29
2023/04/10 05:32:30;;;;;;;8.90;7.20;;;;;;;;;;107808;272;39840;-29
2023/04/10 05:35:07;;;;;;;9.00;7.40;;;;;;;;;;107820;271;42927;-29
2023/04/10 05:37:42;;;;;;;8.50;6.60;;;;;;;;;;107819;279;42141;-29
2023/04/10 05:40:21;;;;;;;9.40;7.50;;;;;;;;;;107808;272;38576;-29
2023/04/10 05:42:57;;;;;;;8.90;7.30;;;;;;;;;;107852;279;39427;-29
2023/04/10 05:45:34;;;;;;;8.60;7.10;;;;;;;;;;107843;272;42863;-29
2023/04/10 05:48:08;;;;;;;8.60;7.00;;;;;;;;;;107859;271;42221;-29
2023/04/10 05:50:43;;;;;;;8.60;7.10;;;;;;;;;;107841;272;38812;-29
2023/04/10 05:53:24;;;;;;;8.20;7.00;;;;;;;;;;107848;271;39807;-29
2023/04/10 05:56:02;;;;;;;8.20;6.80;;;;;;;;;;107849;279;42843;-29
2023/04/10 05:58:39;;;;;;;8.20;6.90;;;;;;;;;;107780;272;42141;-29
2023/04/10 06:01:15;;;;;;;8.20;6.80;;;;;;;;;;107718;272;175747;-29
2023/04/10 06:03:50;;;;;;;8.00;6.80;;;;;;;;;;107782;279;40584;-29
2023/04/10 06:06:25;;;;;;;8.30;6.80;;;;;;;;;;107812;272;42998;-29
2023/04/10 06:09:01;;;;;;;8.50;7.00;;;;;;;;;;107861;272;42234;-29
2023/04/10 06:11:36;;;;;;;8.50;6.70;;;;;;;;;;107836;272;38852;-29
2023/04/10 06:14:10;;;;;;;8.80;7.00;;;;;;;;;;107777;272;40053;-29
2023/04/10 06:16:48;;;;;;;8.20;6.90;;;;;;;;;;107821;279;43057;-29
2023/04/10 06:19:23;;;;;;;9.10;7.00;;;;;;;;;;107863;272;42160;-29
2023/04/10 06:21:59;;;;;;;8.40;6.90;;;;;;;;;;107838;279;38798;-29
2023/04/10 06:24:35;;;;;;;7.90;6.60;;;;;;;;;;107813;272;39670;-29
2023/04/10 06:27:11;;;;;;;8.00;6.60;;;;;;;;;;107814;272;43992;-29
2023/04/10 06:29:48;;;;;;;7.80;6.60;;;;;;;;;;107187;279;914409;-29
2023/04/10 06:32:26;;;;;;;9.30;6.90;;;;;;;;;;107833;272;39182;-29
2023/04/10 06:35:04;;;;;;;8.10;6.90;;;;;;;;;;107816;272;39725;-29
2023/04/10 06:37:38;;;;;;;8.00;6.30;;;;;;;;;;107830;279;42975;-29
2023/04/10 06:40:15;;;;;;;7.80;6.20;;;;;;;;;;107826;279;42152;-29
2023/04/10 06:42:51;;;;;;;8.50;6.50;;;;;;;;;;107873;272;38796;-29
2023/04/10 06:45:26;;;;;;;7.80;6.30;;;;;;;;;;107823;279;39683;-29
2023/04/10 06:48:04;;;;;;;8.00;6.40;;;;;;;;;;107847;275;43158;-29
2023/04/10 06:50:41;;;;;;;8.00;6.30;;;;;;;;;;107869;272;42326;-29
2023/04/10 06:53:16;;;;;;;7.70;5.90;;;;;;;;;;107815;279;38783;-29
2023/04/10 06:55:55;;;;;;;7.90;6.50;;;;;;;;;;107826;272;39849;-29
2023/04/10 06:58:33;;;;;;;8.00;6.30;;;;;;;;;;107841;279;43093;-29
2023/04/10 07:01:08;;;;;;;7.90;6.30;;;;;;;;;;107828;279;42107;-29
2023/04/10 07:03:43;;;;;;;7.50;6.20;;;;;;;;;;107850;272;38783;-29
2023/04/10 07:06:18;;;;;;;7.60;5.90;;;;;;;;;;107808;272;39639;-29
2023/04/10 07:08:53;;;;;;;7.60;6.10;;;;;;;;;;107853;279;42861;-29
2023/04/10 07:11:32;;;;;;;7.80;5.80;;;;;;;;;;107841;272;42150;-29
2023/04/10 07:14:11;;;;;;;7.60;6.20;;;;;;;;;;107788;279;38831;-29
2023/04/10 07:16:47;;;;;;;8.10;6.20;;;;;;;;;;107930;272;45345;-29
2023/04/10 07:19:24;;;;;;;8.70;6.30;;;;;;;;;;107811;279;42630;-29
2023/04/10 07:22:01;;;;;;;7.70;6.00;;;;;;;;;;107847;272;42116;-29
2023/04/10 07:24:40;;;;;;;7.80;6.20;;;;;;;;;;107819;272;38908;-29
2023/04/10 07:27:14;;;;;;;7.50;5.80;;;;;;;;;;107841;275;46913;-29
2023/04/10 07:29:49;;;;;;;7.60;6.10;;;;;;;;;;107838;275;43233;-29
2023/04/10 07:32:31;;;;;;;8.00;6.10;;;;;;;;;;107825;279;42232;-29
2023/04/10 07:35:09;;;;;;;7.30;5.90;;;;;;;;;;107801;272;38836;-29
2023/04/10 07:37:51;;;;;;;7.50;5.80;;;;;;;;;;107730;272;175691;-29
2023/04/10 07:40:28;;;;;;;7.10;6.00;;;;;;;;;;107848;272;43386;-29
2023/04/10 07:43:03;;;;;;;7.10;5.60;;;;;;;;;;107825;272;42178;-29
2023/04/10 07:45:39;;;;;;;8.10;5.60;;;;;;;;;;107837;279;38900;-29
2023/04/10 07:48:17;;;;;;;7.30;5.90;;;;;;;;;;107831;279;40020;-29
2023/04/10 07:50:53;;;;;;;7.20;5.90;;;;;;;;;;107846;272;42940;-29
2023/04/10 07:53:32;;;;;;;7.20;5.90;;;;;;;;;;107883;272;42205;-29
2023/04/10 07:56:14;;;;;;;7.70;6.00;;;;;;;;;;107810;279;38767;-29
2023/04/10 07:58:47;;;;;;;;;;;;;;;;;;107859;272;39922;-29
2023/04/10 08:01:27;;;;;;;7.20;5.60;;;;;;;;;;107822;272;42867;-29
2023/04/10 08:04:04;;;;;;;7.50;6.00;;;;;;;;;;107866;277;42090;-29
2023/04/10 08:06:42;;;;;;;7.40;5.80;;;;;;;;;;107798;279;38824;-29
2023/04/10 08:09:17;;;;;;;7.30;5.80;;;;;;;;;;107856;279;40851;-29
2023/04/10 08:11:54;;;;;;;6.90;5.30;;;;;;;;;;107859;272;42950;-29
2023/04/10 08:14:30;;;;;;;7.60;5.50;;;;;;;;;;107821;272;42168;-29
2023/04/10 08:17:05;;;;;;;6.90;5.30;;;;;;;;;;107803;272;38922;-29
2023/04/10 08:19:42;;;;;;;6.70;5.60;;;;;;;;;;107854;272;39781;-29
2023/04/10 08:22:18;;;;;;;6.70;5.30;;;;;;;;;;107858;272;42889;-29
2023/04/10 08:24:52;;;;;;;6.70;5.40;;;;;;;;;;107809;279;42130;-29
2023/04/10 08:27:29;;;;;;;7.00;5.30;;;;;;;;;;107781;272;38922;-29
2023/04/10 08:30:06;;;;;;;7.10;5.60;;;;;;;;;;107828;272;39718;-29
2023/04/10 08:32:43;;;;;;;7.00;5.50;;;;;;;;;;107741;272;175369;-29
2023/04/10 08:35:20;;;;;;;7.00;5.60;;;;;;;;;;107819;279;42249;-29
2023/04/10 08:37:56;;;;;;;7.40;5.50;;;;;;;;;;107804;279;38766;-29
2023/04/10 08:40:49;;;;;;;6.90;5.60;;;;;;;;;;107839;279;39694;-29
2023/04/10 08:43:25;;;;;;;6.90;5.30;;;;;;;;;;107861;271;43069;-29
2023/04/10 08:46:02;;;;;;;6.90;5.20;;;;;;;;;;107829;272;42177;-29
2023/04/10 08:48:43;;;;;;;7.30;5.20;;;;;;;;;;107827;279;38864;-29
2023/04/10 08:51:21;;;;;;;6.40;5.10;;;;;;;;;;107837;279;39790;-29
2023/04/10 08:54:08;;;;;;;6.10;5.20;;;;;;;;;;107850;272;42836;-29
2023/04/10 08:56:50;;;;;;;6.80;5.50;;;;;;;;;;107803;279;43346;-29
2023/04/10 08:59:24;;;;;;;6.70;4.90;;;;;;;;;;107833;272;39955;-29
2023/04/10 09:01:57;;;;;;;6.50;5.00;;;;;;;;;;107864;279;39703;-29
2023/04/10 09:04:33;;;;;;;6.60;5.30;;;;;;;;;;107869;279;42703;-29
2023/04/10 09:07:09;;;;;;;6.70;4.90;;;;;;;;;;107815;271;42449;-29
2023/04/10 09:09:45;;;;;;;7.00;5.40;;;;;;;;;;107874;279;38809;-29
2023/04/10 09:12:22;;;;;;;6.50;4.90;;;;;;;;;;107833;272;39664;-29
2023/04/10 09:15:00;;;;;;;6.80;5.00;;;;;;;;;;107824;271;42944;-29
2023/04/10 09:17:39;;;;;;;6.40;5.00;;;;;;;;;;107810;279;42632;-29
2023/04/10 09:20:26;;;;;;;6.60;5.20;;;;;;;;;;107817;272;39256;-29
2023/04/10 09:23:01;;;;;;;6.40;5.00;;;;;;;;;;107851;271;39672;-29
2023/04/10 09:25:39;;;;;;;5.80;4.50;;;;;;;;;;107815;271;43121;-29
2023/04/10 09:28:16;;;;;;;6.40;5.10;;;;;;;;;;107782;271;42239;-29
2023/04/10 09:30:53;;;;;;;6.30;5.10;;;;;;;;;;107845;279;38769;-29
2023/04/10 09:33:31;;;;;;;6.70;5.10;;;;;;;;;;107848;272;41147;-29
2023/04/10 09:36:16;;;;;;;6.20;4.70;;;;;;;;;;107842;272;44309;-29
2023/04/10 09:38:57;;;;;;;5.90;4.70;;;;;;;;;;107380;279;549774;-29
2023/04/10 09:41:33;;;;;;;6.20;5.00;;;;;;;;;;107855;272;39771;-29
2023/04/10 09:44:14;;;;;;;6.10;4.80;;;;;;;;;;107736;271;193751;-29
2023/04/10 09:46:49;;;;;;;6.00;4.80;;;;;;;;;;107766;272;175634;-29
2023/04/10 09:49:25;;;;;;;6.30;4.90;;;;;;;;;;107788;272;42190;-29
2023/04/10 09:51:59;;;;;;;6.10;4.80;;;;;;;;;;107856;272;39901;-29
2023/04/10 09:54:39;;;;;;;6.30;5.10;;;;;;;;;;107846;272;39993;-29
2023/04/10 09:57:16;;;;;;;6.70;4.90;;;;;;;;;;107819;271;43924;-29
2023/04/10 09:59:52;;;;;;;6.20;4.90;;;;;;;;;;107825;279;43436;-29
2023/04/10 10:02:31;;;;;;;5.90;4.80;;;;;;;;;;107865;275;39099;-29
2023/04/10 10:05:08;;;;;;;6.10;4.60;;;;;;;;;;107817;279;39711;-29
2023/04/10 10:07:45;;;;;;;5.60;4.30;;;;;;;;;;107868;279;42888;-29
2023/04/10 10:10:21;;;;;;;6.10;4.60;;;;;;;;;;107817;279;47876;-29
2023/04/10 10:13:02;;;;;;;6.10;4.60;;;;;;;;;;107874;272;38911;-29
2023/04/10 10:15:43;;;;;;;5.70;4.70;;;;;;;;;;107839;272;39974;-29
2023/04/10 10:18:32;;;;;;;6.10;4.50;;;;;;;;;;107794;279;42754;-29
2023/04/10 10:21:07;;;;;;;6.30;5.00;;;;;;;;;;107833;279;49630;-29
2023/04/10 10:23:42;;;;;;;6.00;4.70;;;;;;;;;;107845;279;38843;-29
2023/04/10 10:26:18;;;;;;;5.60;4.40;;;;;;;;;;107865;272;39853;-29
2023/04/10 10:28:54;;;;;;;5.80;4.60;;;;;;;;;;107800;272;42880;-29
2023/04/10 10:31:32;;;;;;;6.20;4.70;;;;;;;;;;107842;279;49350;-29
2023/04/10 10:34:08;;;;;;;5.90;4.40;;;;;;;;;;107761;275;175623;-29
2023/04/10 10:36:45;;;;;;;5.80;4.30;;;;;;;;;;107813;279;40877;-29
2023/04/10 10:39:35;;;;;;;6.10;4.50;;;;;;;;;;107780;279;44010;-29
2023/04/10 10:42:18;;;;;;;6.00;4.20;;;;;;;;;;107820;272;42169;-29
2023/04/10 10:45:03;;;;;;;6.30;4.80;;;;;;;;;;107835;279;38767;-29
2023/04/10 10:47:47;;;;;;;5.80;4.50;;;;;;;;;;107810;279;41028;-29
2023/04/10 10:50:23;;;;;;;5.80;4.20;;;;;;;;;;107820;272;42604;-29
2023/04/10 10:53:01;;;;;;;6.10;4.60;;;;;;;;;;107840;279;43270;-29
2023/04/10 10:55:38;;;;;;;5.70;4.40;;;;;;;;;;107850;279;40070;-29
2023/04/10 10:58:12;;;;;;;5.90;4.30;;;;;;;;;;107878;279;39804;-29
2023/04/10 11:01:21;;;;;;;5.90;4.40;;;;;;;;;;107862;279;44096;-29
2023/04/10 11:03:59;;;;;;;5.50;4.10;;;;;;;;;;107859;279;42302;-29
2023/04/10 11:06:53;;;;;;;5.50;4.20;;;;;;;;;;107828;275;38812;-29
2023/04/10 11:09:53;;;;;;;5.50;4.10;;;;;;;;;;107831;272;39622;-29
2023/04/10 11:12:29;;;;;;;5.70;4.20;;;;;;;;;;107809;275;49918;-29
2023/04/10 11:15:05;;;;;;;5.30;3.90;;;;;;;;;;107809;279;42330;-29
2023/04/10 11:17:54;;;;;;;5.60;4.30;;;;;;;;;;107826;279;38997;-29
2023/04/10 11:20:29;;;;;;;5.80;4.00;;;;;;;;;;107803;272;41037;-29
2023/04/10 11:23:19;;;;;;;5.50;3.90;;;;;;;;;;107858;272;42987;-29
2023/04/10 11:25:55;;;;;;;5.70;4.40;;;;;;;;;;107836;272;43284;-29
2023/04/10 11:28:40;;;;;;;5.70;4.10;;;;;;;;;;107838;280;38801;-29
2023/04/10 11:31:25;;;;;;;5.50;4.00;;;;;;;;;;107785;272;40883;-29
2023/04/10 11:34:06;;;;;;;5.70;4.00;;;;;;;;;;107830;272;43006;-29
2023/04/10 11:36:46;;;;;;;5.30;4.00;;;;;;;;;;107818;279;44352;-29
2023/04/10 11:39:23;;;;;;;6.10;4.00;;;;;;;;;;107833;272;39013;-29
2023/04/10 11:42:00;;;;;;;5.20;4.10;;;;;;;;;;107793;279;39850;-29
2023/04/10 11:44:39;;;;;;;5.40;3.90;;;;;;;;;;107702;272;177349;-29
2023/04/10 11:47:20;;;;;;;5.40;4.00;;;;;;;;;;107839;279;42181;-29
2023/04/10 11:49:59;;;;;;;5.60;3.80;;;;;;;;;;107858;279;38519;-29
2023/04/10 11:52:37;;;;;;;5.40;3.80;;;;;;;;;;107802;279;39425;-29
2023/04/10 11:55:15;;;;;;;5.40;3.80;;;;;;;;;;107856;272;43169;-29
2023/04/10 11:57:50;;;;;;;5.40;3.90;;;;;;;;;;107817;272;42149;-29
2023/04/10 12:00:27;;;;;;;5.10;3.70;;;;;;;;;;107832;272;38790;-29
2023/04/10 12:03:03;;;;;;;5.60;4.00;;;;;;;;;;107802;277;39717;-29
2023/04/10 12:05:51;;;;;;;5.00;3.50;;;;;;;;;;107829;275;43477;-29
2023/04/10 12:08:34;;;;;;;5.50;4.00;;;;;;;;;;107821;272;42298;-29
2023/04/10 12:11:10;;;;;;;5.30;3.90;;;;;;;;;;107887;272;38789;-29
2023/04/10 12:13:45;;;;;;;4.90;3.50;;;;;;;;;;107949;272;45334;-29
2023/04/10 12:16:22;;;;;;;5.20;3.80;;;;;;;;;;107713;279;175576;-29
2023/04/10 12:19:00;;;;;;;5.10;3.70;;;;;;;;;;107864;272;42385;-29
2023/04/10 12:21:39;;;;;;;5.10;3.60;;;;;;;;;;107846;279;38570;-29
2023/04/10 12:24:17;;;;;;;5.10;3.80;;;;;;;;;;107793;274;45904;-29
2023/04/10 12:26:52;;;;;;;5.10;3.50;;;;;;;;;;107857;279;42868;-29
2023/04/10 12:29:29;;;;;;;5.20;3.70;;;;;;;;;;107880;272;42262;-29
2023/04/10 12:32:11;;;;;;;4.90;3.50;;;;;;;;;;107800;279;38524;-29
2023/04/10 12:34:56;;;;;;;5.20;3.80;;;;;;;;;;107868;279;39882;-29
2023/04/10 12:37:53;;;;;;;5.10;3.50;;;;;;;;;;107826;275;42882;-29
2023/04/10 12:40:28;;;;;;;5.00;3.50;;;;;;;;;;107809;272;42239;-29
2023/04/10 12:43:05;;;;;;;5.40;3.50;;;;;;;;;;107832;272;38809;-29
2023/04/10 12:45:49;;;;;;;4.80;3.40;;;;;;;;;;107859;279;39672;-29
2023/04/10 12:48:29;;;;;;;4.90;3.30;;;;;;;;;;107715;272;175605;-29
2023/04/10 12:51:08;;;;;;;4.90;3.50;;;;;;;;;;107816;271;42158;-29
2023/04/10 12:53:48;;;;;;;4.90;3.70;;;;;;;;;;107781;279;39895;-29
2023/04/10 12:56:24;;;;;;;4.80;3.40;;;;;;;;;;107816;272;39803;-29
2023/04/10 12:59:12;;;;;;;4.70;3.60;;;;;;;;;;107835;272;42840;-29
2023/04/10 13:01:48;;;;;;;5.00;3.40;;;;;;;;;;107845;279;42252;-29
2023/04/10 13:04:25;;;;;;;5.10;3.70;;;;;;;;;;107810;272;38708;-29
2023/04/10 13:07:06;;;;;;;4.90;3.40;;;;;;;;;;107835;271;39713;-29
2023/04/10 13:09:40;;;;;;;4.50;3.20;;;;;;;;;;107838;279;42945;-29
2023/04/10 13:12:17;;;;;;;4.40;3.10;;;;;;;;;;107841;271;42128;-29
2023/04/10 13:14:54;;;;;;;4.60;3.10;;;;;;;;;;107805;280;38772;-29
2023/04/10 13:17:33;;;;;;;4.80;3.40;;;;;;;;;;107833;272;40002;-29
2023/04/10 13:20:12;;;;;;;4.80;3.30;;;;;;;;;;107844;271;42993;-29
2023/04/10 13:22:49;;;;;;;4.90;3.20;;;;;;;;;;107813;274;42125;-29
2023/04/10 13:25:27;;;;;;;4.70;3.20;;;;;;;;;;107822;279;44854;-29
2023/04/10 13:28:02;;;;;;;4.60;3.10;;;;;;;;;;107829;271;39698;-29
2023/04/10 13:30:39;;;;;;;4.70;3.10;;;;;;;;;;107844;272;43005;-29
2023/04/10 13:33:14;;;;;;;4.60;3.10;;;;;;;;;;107832;279;42151;-29
2023/04/10 13:35:50;;;;;;;4.60;3.00;;;;;;;;;;107844;272;45121;-29
2023/04/10 13:38:33;;;;;;;4.30;3.00;;;;;;;;;;107835;279;39680;-29
2023/04/10 13:41:10;;;;;;;5.00;3.10;;;;;;;;;;107872;271;43958;-29
2023/04/10 13:43:48;;;;;;;4.50;2.90;;;;;;;;;;107808;279;43311;-29
2023/04/10 13:46:27;;;;;;;4.90;3.10;;;;;;;;;;107828;271;38760;-29
2023/04/10 13:49:01;;;;;;;4.90;3.10;;;;;;;;;;107859;271;39714;-29
2023/04/10 13:51:40;;;;;;;4.60;3.20;;;;;;;;;;107830;279;42855;-29
2023/04/10 13:54:17;;;;;;;4.30;3.00;;;;;;;;;;107817;279;42324;-29
2023/04/10 13:56:53;;;;;;;4.40;3.00;;;;;;;;;;107856;279;38907;-29
2023/04/10 13:59:32;;;;;;;5.00;3.10;;;;;;;;;;107863;271;39822;-29
2023/04/10 14:02:05;;;;;;;4.20;2.90;;;;;;;;;;107827;279;42972;-29
2023/04/10 14:04:44;;;;;;;4.40;2.80;;;;;;;;;;107834;272;42701;-29
2023/04/10 14:07:21;;;;;;;4.50;3.10;;;;;;;;;;107825;279;38808;-29
2023/04/10 14:09:55;;;;;;;4.60;2.90;;;;;;;;;;107829;279;39711;-29
2023/04/10 14:12:31;;;;;;;4.60;2.90;;;;;;;;;;107855;279;43146;-29
2023/04/10 14:15:09;;;;;;;4.70;3.00;;;;;;;;;;107818;271;42157;-29
2023/04/10 14:17:45;;;;;;;4.30;2.80;;;;;;;;;;107860;272;38896;-29
2023/04/10 14:20:22;;;;;;;4.40;2.90;;;;;;;;;;107817;271;39446;-29
2023/04/10 14:23:00;;;;;;;4.50;2.90;;;;;;;;;;107714;279;175617;-29
2023/04/10 14:25:35;;;;;;;4.30;2.70;;;;;;;;;;107821;271;42281;-29
2023/04/10 14:28:17;;;;;;;4.60;3.00;;;;;;;;;;107806;279;38815;-29
2023/04/10 14:30:53;;;;;;;4.20;3.10;;;;;;;;;;107839;271;39732;-29
2023/04/10 14:33:29;;;;;;;4.20;2.80;;;;;;;;;;107843;279;43055;-29
2023/04/10 14:36:04;;;;;;;4.30;2.90;;;;;;;;;;107826;279;42204;-29
2023/04/10 14:38:39;;;;;;;4.40;3.00;;;;;;;;;;107829;279;38758;-29
2023/04/10 14:41:15;;;;;;;4.30;2.90;;;;;;;;;;107825;279;39842;-29
2023/04/10 14:43:53;;;;;;;4.20;2.80;;;;;;;;;;107798;279;42836;-29
2023/04/10 14:46:29;;;;;;;4.40;2.80;;;;;;;;;;107816;279;42243;-29
2023/04/10 14:49:06;;;;;;;4.90;2.70;;;;;;;;;;107838;275;38938;-29
2023/04/10 14:51:44;;;;;;;4.20;2.70;;;;;;;;;;107884;272;39727;-29
2023/04/10 14:54:22;;;;;;;4.60;2.90;;;;;;;;;;107853;272;42827;-29
2023/04/10 14:57:00;;;;;;;4.40;3.00;;;;;;;;;;107790;272;42148;-29
2023/04/10 14:59:35;;;;;;;4.30;2.80;;;;;;;;;;107856;272;38844;-29
2023/04/10 15:02:15;;;;;;;4.40;2.60;;;;;;;;;;107805;280;39870;-29
2023/04/10 15:04:49;;;;;;;4.60;3.10;;;;;;;;;;107815;272;42956;-29
2023/04/10 15:07:23;;;;;;;4.10;2.60;;;;;;;;;;107801;279;42245;-29
2023/04/10 15:10:04;;;;;;;4.30;2.80;;;;;;;;;;107840;279;38596;-29
2023/04/10 15:12:41;;;;;;;4.50;2.80;;;;;;;;;;107816;279;39807;-29
2023/04/10 15:15:17;;;;;;;4.30;2.80;;;;;;;;;;107817;272;42841;-29
2023/04/10 15:17:55;;;;;;;4.40;2.70;;;;;;;;;;107831;279;49373;-29
2023/04/10 15:20:32;;;;;;;4.30;2.80;;;;;;;;;;107839;272;39028;-29
2023/04/10 15:23:13;;;;;;;4.40;2.70;;;;;;;;;;107846;279;39598;-29
2023/04/10 15:25:49;;;;;;;4.20;2.70;;;;;;;;;;107780;279;42907;-29
2023/04/10 15:28:26;;;;;;;4.40;2.70;;;;;;;;;;107837;279;42272;-29
2023/04/10 15:31:03;;;;;;;4.80;2.90;;;;;;;;;;107836;279;38762;-29
2023/04/10 15:33:41;;;;;;;4.60;2.80;;;;;;;;;;107856;279;39836;-29
2023/04/10 15:36:19;;;;;;;4.30;2.90;;;;;;;;;;107788;279;42872;-29
2023/04/10 15:38:57;;;;;;;4.60;2.70;;;;;;;;;;107811;279;42180;-29
2023/04/10 15:41:34;;;;;;;3.90;2.50;;;;;;;;;;107831;279;40959;-29
2023/04/10 15:44:11;;;;;;;5.00;2.50;;;;;;;;;;107844;279;39743;-29
2023/04/10 15:46:48;;;;;;;4.30;2.70;;;;;;;;;;107803;275;42967;-29